Allingtown, CT

12:12 PM EDT on October 24, 2014 (GMT -0400)
Waterbury-Oxford | Change Station
CLOSE
Current Station
Airport
Location: Oxford,
Elevation: 725 ft
Nearby Weather Stations

Elev 725 ft 41.47 °N, 73.14 °W | Updated 27 minutes ago

Overcast
Overcast
48 °F
Feels Like 48 °F
N
15
Wind Variable Wind from NNW
Gusts 23 mph

Today
High -- | Low -- °F
--% Chance of Precip.
Yesterday
High -- | Low -- °F
Precip. -- in
7:13 AM 5:57 PM
New Moon, 1% visible
Pressure 29.79 in
Visibility 10.0 miles
Clouds Scattered Clouds 1100 ft
Overcast 1900 ft
Dew Point 41 °F
Humidity 76%
Rainfall 0.00 in
Snow Depth Not available.
UV 1 out of 12
Pollen .10 out of 12
Ozone Good
PM2.5 Good
Flu Activity Sporadic
METAR KOXC 241545Z 34013G20KT 10SM SCT011 OVC019 09/05 A2979

More Conditions Fewer Conditions

Pressure 29.79 in
Visibility 10.0 miles
Clouds Scattered Clouds 1100 ft
Overcast 1900 ft
Dew Point 41 °F
Humidity 76%
Rainfall 0.00 in
Snow Depth Not available.
UV 1 out of 12
Pollen .10 out of 12
Ozone Good
PM2.5 Good
Flu Activity Sporadic
METAR KOXC 241545Z 34013G20KT 10SM SCT011 OVC019 09/05 A2979

More Conditions Fewer Conditions

10-Day Weather Forecast

Almanac

Astronomy

Oct. 24, 2014 Rise Set
Actual Time 7:13 AM EDT 5:57 PM EDT
Civil Twilight 6:45 AM EDT 6:25 PM EDT
Nautical Twilight 6:13 AM EDT 6:58 PM EDT
Astronomical Twilight 5:41 AM EDT 7:30 PM EDT
Moon 7:50 AM EDT 6:35 PM EDT
Length of Visible Light 11h 40m
Length of Day
10h 43m
Tomorrow will be 2m 33s shorter.
New Moon, 1% of the Moon is Illuminated
Today
New Moon
Oct 30
First Quarter
Nov 6
Full
Nov 14
Last Quarter
Nov 22
New

Today's Extremes

State Highs State Lows

Community

WunderPhotos

Upload Photos

1,764,600 photos uploaded!

WunderBlogs® & News

Nearby

Air Quality

  Air Quality AQ Index Pollutant
Yesterday Good
OZONE
Yesterday Good
PM10
Current Good
PM2.5
Current Good
OZONE
Friday Good
PM2.5
Saturday Good
PM2.5
Sunday Good
PM2.5
Monday Good
PM2.5

Snow Depth

Station Depth Elevation
No new snow has been reported.

Earthquake Activity

City Distance Mag. Time & Date
No recent earthquake activity has been reported nearby.
Minimum magnitude displayed is 2.5.

Coastal Water Temperatures

Place Temperature
Kings Point, NY 57.9 °F
Bridgeport, CT 59.0 °F

Nearby Weather Stations